| time (UTC) | temp F | wind direction | speed MPH | gust MPH | rain 1hr in | rain 24hr in | rain mn in | humidity % | barometer mb |
| 20260503220104 | 76 | 296 | 2.0 | 12.0 | 0.00 | 0.00 | 0.00 | 45 | 1010.2 |
| 20260503215104 | 75 | 66 | 6.0 | 13.0 | 0.00 | 0.00 | 0.00 | 42 | 1010.2 |
| 20260503213103 | 75 | 48 | 5.0 | 17.0 | 0.00 | 0.00 | 0.00 | 42 | 1010.5 |
| 20260503212104 | 75 | 69 | 2.0 | 13.0 | 0.00 | 0.00 | 0.00 | 44 | 1010.5 |
| 20260503211104 | 75 | 60 | 2.0 | 10.0 | 0.00 | 0.00 | 0.00 | 44 | 1010.6 |
| 20260503210104 | 74 | 46 | 1.0 | 13.0 | 0.00 | 0.00 | 0.00 | 47 | 1010.7 |
| 20260503205103 | 74 | 24 | 7.0 | 13.0 | 0.00 | 0.00 | 0.00 | 47 | 1010.7 |
| 20260503204105 | 73 | 337 | 9.0 | 15.0 | 0.00 | 0.00 | 0.00 | 50 | 1010.9 |
| 20260503203104 | 73 | 76 | 6.0 | 12.0 | 0.00 | 0.00 | 0.00 | 52 | 1011.0 |
| 20260503202104 | 73 | 75 | 7.0 | 12.0 | 0.00 | 0.00 | 0.00 | 51 | 1011.0 |
| 20260503201103 | 72 | 66 | 6.0 | 13.0 | 0.00 | 0.00 | 0.00 | 54 | 1011.2 |
| 20260503200104 | 72 | 59 | 6.0 | 12.0 | 0.00 | 0.00 | 0.00 | 53 | 1011.5 |
| 20260503195104 | 72 | 69 | 6.0 | 12.0 | 0.00 | 0.00 | 0.00 | 54 | 1011.5 |
| 20260503194104 | 71 | 48 | 3.0 | 10.0 | 0.00 | 0.00 | 0.00 | 56 | 1011.7 |
| 20260503193104 | 71 | 74 | 4.0 | 12.0 | 0.00 | 0.00 | 0.00 | 55 | 1011.8 |
| 20260503192104 | 71 | 63 | 3.0 | 13.0 | 0.00 | 0.00 | 0.00 | 58 | 1011.8 |
| 20260503191107 | 71 | 74 | 6.0 | 14.0 | 0.00 | 0.00 | 0.00 | 56 | 1012.0 |
| 20260503190104 | 71 | 63 | 5.0 | 12.0 | 0.00 | 0.00 | 0.00 | 55 | 1012.1 |
| 20260503185104 | 71 | 86 | 4.0 | 12.0 | 0.00 | 0.00 | 0.00 | 56 | 1012.1 |
| 20260503184104 | 71 | 134 | 5.0 | 13.0 | 0.00 | 0.00 | 0.00 | 54 | 1012.2 |
| 20260503183104 | 71 | 56 | 6.0 | 13.0 | 0.00 | 0.00 | 0.00 | 57 | 1012.2 |
| 20260503182104 | 70 | 21 | 6.0 | 15.0 | 0.00 | 0.00 | 0.00 | 59 | 1012.2 |
| 20260503181104 | 70 | 63 | 7.0 | 10.0 | 0.00 | 0.00 | 0.00 | 58 | 1012.3 |
| 20260503174103 | 69 | 58 | 9.0 | 14.0 | 0.00 | 0.00 | 0.00 | 59 | 1012.6 |
| 20260503173104 | 69 | 20 | 5.0 | 13.0 | 0.00 | 0.00 | 0.00 | 59 | 1012.7 |
| 20260503172104 | 68 | 88 | 5.0 | 13.0 | 0.00 | 0.00 | 0.00 | 62 | 1012.7 |
| 20260503170105 | 68 | 64 | 6.0 | 17.0 | 0.00 | 0.00 | 0.00 | 62 | 1012.7 |
| 20260503150103 | 63 | 78 | 2.0 | 6.0 | 0.00 | 0.00 | 0.00 | 70 | 1012.8 |
| 20260503140104 | 60 | 111 | 1.0 | 3.0 | 0.00 | 0.00 | 0.00 | 72 | 1012.4 |
| 20260503131104 | 57 | 227 | 0.0 | 3.0 | 0.00 | 0.00 | 0.00 | 76 | 1012.2 |
| 20260503130104 | 57 | 227 | 0.0 | 2.0 | 0.00 | 0.00 | 0.00 | 77 | 1012.2 |
| 20260503110103 | 52 | 229 | 0.0 | 0.0 | 0.00 | 0.00 | 0.00 | 87 | 1012.7 |
| 20260503100104 | 53 | 229 | 0.0 | 0.0 | 0.00 | 0.00 | 0.00 | 85 | 1013.0 |
| 20260503090104 | 53 | 229 | 0.0 | 0.0 | 0.00 | 0.00 | 0.00 | 85 | 1012.9 |
| 20260503080106 | 55 | 229 | 0.0 | 0.0 | 0.00 | 0.00 | 0.00 | 82 | 1012.7 |
| 20260503072104 | 60 | 227 | 0.0 | 3.0 | 0.00 | 0.00 | 0.00 | 67 | 1012.6 |
| 20260503071104 | 59 | 225 | 0.0 | 3.0 | 0.00 | 0.00 | 0.00 | 69 | 1012.5 |
| 20260503070104 | 58 | 208 | 0.0 | 2.0 | 0.00 | 0.00 | 0.00 | 73 | 1012.4 |
| 20260503060103 | 58 | 208 | 0.0 | 0.0 | 0.00 | 0.00 | 0.00 | 73 | 1012.5 |
| 20260503055104 | 59 | 208 | 0.0 | 0.0 | 0.00 | 0.00 | 0.00 | 70 | 1012.5 |
| 20260503054104 | 60 | 208 | 0.0 | 0.0 | 0.00 | 0.00 | 0.00 | 68 | 1012.4 |
| 20260503053104 | 60 | 208 | 0.0 | 1.0 | 0.00 | 0.00 | 0.00 | 68 | 1012.4 |
| 20260503052104 | 61 | 208 | 0.0 | 2.0 | 0.00 | 0.00 | 0.00 | 68 | 1012.4 |
| 20260503051103 | 60 | 208 | 0.0 | 3.0 | 0.00 | 0.00 | 0.00 | 69 | 1012.3 |
| 20260503045104 | 60 | 207 | 0.0 | 0.0 | 0.00 | 0.00 | 0.00 | 68 | 1012.2 |
| 20260503043104 | 61 | 207 | 0.0 | 0.0 | 0.00 | 0.00 | 0.00 | 68 | 1012.0 |
| 20260503042104 | 62 | 207 | 0.0 | 0.0 | 0.00 | 0.00 | 0.00 | 67 | 1012.0 |
| 20260503041104 | 62 | 207 | 0.0 | 0.0 | 0.00 | 0.00 | 0.00 | 64 | 1011.7 |
| 20260503040105 | 63 | 207 | 0.0 | 0.0 | 0.00 | 0.00 | 0.00 | 64 | 1011.7 |
| 20260503035103 | 63 | 207 | 0.0 | 0.0 | 0.00 | 0.00 | 0.00 | 63 | 1011.7 |
| 20260503033103 | 64 | 207 | 0.0 | 1.0 | 0.00 | 0.00 | 0.00 | 60 | 1011.3 |
| 20260503032103 | 65 | 213 | 0.0 | 0.0 | 0.00 | 0.00 | 0.00 | 60 | 1011.3 |
| 20260503031106 | 66 | 213 | 0.0 | 3.0 | 0.00 | 0.00 | 0.00 | 57 | 1011.2 |
| 20260503030103 | 67 | 220 | 0.0 | 3.0 | 0.00 | 0.00 | 0.00 | 55 | 1011.2 |
| 20260503025105 | 67 | 68 | 0.0 | 3.0 | 0.00 | 0.00 | 0.00 | 55 | 1011.2 |
| 20260503024104 | 68 | 88 | 0.0 | 2.0 | 0.00 | 0.00 | 0.00 | 54 | 1011.2 |
| 20260503022104 | 69 | 38 | 1.0 | 7.0 | 0.00 | 0.00 | 0.00 | 53 | 1011.2 |
| 20260503020104 | 69 | 81 | 2.0 | 7.0 | 0.00 | 0.00 | 0.00 | 52 | 1011.3 |
| 20260503015104 | 69 | 62 | 2.0 | 9.0 | 0.00 | 0.00 | 0.00 | 52 | 1011.3 |
| 20260503014103 | 70 | 51 | 2.0 | 9.0 | 0.00 | 0.00 | 0.00 | 50 | 1011.3 |
| 20260503013105 | 70 | 80 | 3.0 | 12.0 | 0.00 | 0.00 | 0.00 | 50 | 1011.4 |
| 20260503011104 | 70 | 78 | 2.0 | 10.0 | 0.00 | 0.00 | 0.00 | 51 | 1011.3 |
| 20260503005104 | 71 | 60 | 2.0 | 9.0 | 0.00 | 0.00 | 0.00 | 51 | 1011.5 |
| 20260503004104 | 71 | 73 | 3.0 | 10.0 | 0.00 | 0.00 | 0.00 | 50 | 1011.6 |
| 20260503003103 | 72 | 95 | 3.0 | 13.0 | 0.00 | 0.00 | 0.00 | 50 | 1011.6 |
| 20260503002104 | 72 | 42 | 5.0 | 14.0 | 0.00 | 0.00 | 0.00 | 50 | 1011.6 |
| 20260502235103 | 71 | 72 | 6.0 | 12.0 | 0.00 | 0.00 | 0.00 | 52 | 1011.7 |
| 20260502234104 | 71 | 65 | 3.0 | 13.0 | 0.00 | 0.00 | 0.00 | 52 | 1011.9 |
| 20260502232103 | 71 | 63 | 4.0 | 13.0 | 0.00 | 0.00 | 0.00 | 54 | 1012.2 |
| 20260502231104 | 71 | 23 | 3.0 | 12.0 | 0.00 | 0.00 | 0.00 | 55 | 1012.4 |
| 20260502230104 | 70 | 95 | 3.0 | 13.0 | 0.00 | 0.00 | 0.00 | 55 | 1012.8 |
| 20260502224103 | 70 | 9 | 5.0 | 14.0 | 0.00 | 0.00 | 0.00 | 57 | 1012.9 |
| 20260502223103 | 70 | 29 | 6.0 | 14.0 | 0.00 | 0.00 | 0.00 | 59 | 1013.2 |
| 20260502222104 | 70 | 79 | 5.0 | 13.0 | 0.00 | 0.00 | 0.00 | 60 | 1013.2 |
| 20260502221104 | 70 | 73 | 2.0 | 15.0 | 0.00 | 0.00 | 0.00 | 60 | 1013.2 |